sensor_id;sensor_type;location;lat;lon;timestamp;P1;durP1;ratioP1;P2;durP2;ratioP2
32214;SDS011;18708;53.124;23.190;2023-05-10T00:00:16;29.48;;;12.82;;
32214;SDS011;18708;53.124;23.190;2023-05-10T00:02:42;25.27;;;10.82;;
32214;SDS011;18708;53.124;23.190;2023-05-10T00:05:07;24.40;;;10.35;;
32214;SDS011;18708;53.124;23.190;2023-05-10T00:07:34;17.83;;;8.68;;
32214;SDS011;18708;53.124;23.190;2023-05-10T00:09:59;21.85;;;9.43;;
32214;SDS011;18708;53.124;23.190;2023-05-10T00:12:25;18.05;;;8.75;;
32214;SDS011;18708;53.124;23.190;2023-05-10T00:14:51;15.68;;;7.82;;
32214;SDS011;18708;53.124;23.190;2023-05-10T00:17:16;17.92;;;8.15;;
32214;SDS011;18708;53.124;23.190;2023-05-10T00:19:42;14.68;;;8.40;;
32214;SDS011;18708;53.124;23.190;2023-05-10T00:22:07;15.63;;;6.82;;
32214;SDS011;18708;53.124;23.190;2023-05-10T00:24:33;14.68;;;6.82;;
32214;SDS011;18708;53.124;23.190;2023-05-10T00:26:59;14.27;;;7.53;;
32214;SDS011;18708;53.124;23.190;2023-05-10T00:29:25;11.85;;;6.40;;
32214;SDS011;18708;53.124;23.190;2023-05-10T00:31:53;13.05;;;6.63;;
32214;SDS011;18708;53.124;23.190;2023-05-10T00:34:18;8.68;;;5.28;;
32214;SDS011;18708;53.124;23.190;2023-05-10T00:36:44;10.27;;;5.53;;
32214;SDS011;18708;53.124;23.190;2023-05-10T00:39:09;12.50;;;5.63;;
32214;SDS011;18708;53.124;23.190;2023-05-10T00:41:35;12.40;;;6.47;;
32214;SDS011;18708;53.124;23.190;2023-05-10T00:44:01;11.93;;;5.03;;
32214;SDS011;18708;53.124;23.190;2023-05-10T00:46:27;11.43;;;5.70;;
32214;SDS011;18708;53.124;23.190;2023-05-10T00:48:54;10.82;;;5.38;;
32214;SDS011;18708;53.124;23.190;2023-05-10T00:51:19;11.50;;;5.97;;
32214;SDS011;18708;53.124;23.190;2023-05-10T00:53:45;10.98;;;5.80;;
32214;SDS011;18708;53.124;23.190;2023-05-10T00:56:12;11.77;;;5.93;;
32214;SDS011;18708;53.124;23.190;2023-05-10T00:58:38;8.20;;;5.38;;
32214;SDS011;18708;53.124;23.190;2023-05-10T01:01:07;10.50;;;6.05;;
32214;SDS011;18708;53.124;23.190;2023-05-10T01:03:34;11.45;;;5.82;;
32214;SDS011;18708;53.124;23.190;2023-05-10T01:06:01;12.43;;;5.65;;
32214;SDS011;18708;53.124;23.190;2023-05-10T01:08:26;9.55;;;5.20;;
32214;SDS011;18708;53.124;23.190;2023-05-10T01:10:53;12.05;;;6.00;;
32214;SDS011;18708;53.124;23.190;2023-05-10T01:13:33;11.35;;;6.05;;
32214;SDS011;18708;53.124;23.190;2023-05-10T01:16:01;10.27;;;4.53;;
32214;SDS011;18708;53.124;23.190;2023-05-10T01:18:29;12.57;;;5.30;;
32214;SDS011;18708;53.124;23.190;2023-05-10T01:34:53;8.30;;;4.88;;
32214;SDS011;18708;53.124;23.190;2023-05-10T01:37:30;6.50;;;4.15;;
32214;SDS011;18708;53.124;23.190;2023-05-10T01:40:36;11.18;;;6.18;;
32214;SDS011;18708;53.124;23.190;2023-05-10T01:43:08;10.10;;;5.40;;
32214;SDS011;18708;53.124;23.190;2023-05-10T01:46:02;9.32;;;5.25;;
32214;SDS011;18708;53.124;23.190;2023-05-10T01:48:36;8.07;;;4.55;;
32214;SDS011;18708;53.124;23.190;2023-05-10T01:51:12;8.13;;;4.82;;
32214;SDS011;18708;53.124;23.190;2023-05-10T01:53:41;7.82;;;4.82;;
32214;SDS011;18708;53.124;23.190;2023-05-10T01:56:09;6.07;;;4.10;;
32214;SDS011;18708;53.124;23.190;2023-05-10T01:58:37;8.43;;;4.15;;
32214;SDS011;18708;53.124;23.190;2023-05-10T02:01:05;8.73;;;4.25;;
32214;SDS011;18708;53.124;23.190;2023-05-10T02:03:32;8.55;;;4.80;;
32214;SDS011;18708;53.124;23.190;2023-05-10T02:06:01;8.25;;;4.97;;
32214;SDS011;18708;53.124;23.190;2023-05-10T02:08:29;7.70;;;4.60;;
32214;SDS011;18708;53.124;23.190;2023-05-10T02:10:57;9.25;;;4.65;;
32214;SDS011;18708;53.124;23.190;2023-05-10T02:13:24;7.68;;;4.22;;
32214;SDS011;18708;53.124;23.190;2023-05-10T02:15:52;6.97;;;3.70;;
32214;SDS011;18708;53.124;23.190;2023-05-10T02:18:19;7.80;;;4.30;;
32214;SDS011;18708;53.124;23.190;2023-05-10T02:20:47;7.95;;;4.22;;
32214;SDS011;18708;53.124;23.190;2023-05-10T02:23:13;6.65;;;4.45;;
32214;SDS011;18708;53.124;23.190;2023-05-10T02:25:40;5.45;;;3.35;;
32214;SDS011;18708;53.124;23.190;2023-05-10T02:28:09;5.57;;;3.70;;
32214;SDS011;18708;53.124;23.190;2023-05-10T02:30:37;7.53;;;4.13;;
32214;SDS011;18708;53.124;23.190;2023-05-10T02:33:04;8.18;;;3.92;;
32214;SDS011;18708;53.124;23.190;2023-05-10T02:35:31;4.72;;;3.53;;
32214;SDS011;18708;53.124;23.190;2023-05-10T02:37:58;7.22;;;4.22;;
32214;SDS011;18708;53.124;23.190;2023-05-10T02:40:25;6.20;;;3.88;;
32214;SDS011;18708;53.124;23.190;2023-05-10T02:42:52;6.57;;;3.75;;
32214;SDS011;18708;53.124;23.190;2023-05-10T02:45:22;9.30;;;3.85;;
32214;SDS011;18708;53.124;23.190;2023-05-10T02:47:51;8.73;;;4.93;;
32214;SDS011;18708;53.124;23.190;2023-05-10T02:50:17;7.97;;;4.18;;
32214;SDS011;18708;53.124;23.190;2023-05-10T02:52:47;6.38;;;3.88;;
32214;SDS011;18708;53.124;23.190;2023-05-10T02:55:19;6.00;;;3.90;;
32214;SDS011;18708;53.124;23.190;2023-05-10T02:58:08;8.38;;;4.78;;
32214;SDS011;18708;53.124;23.190;2023-05-10T03:00:34;7.50;;;4.32;;
32214;SDS011;18708;53.124;23.190;2023-05-10T03:03:01;7.15;;;4.55;;
32214;SDS011;18708;53.124;23.190;2023-05-10T03:05:27;9.35;;;5.15;;
32214;SDS011;18708;53.124;23.190;2023-05-10T03:07:52;9.30;;;5.68;;
32214;SDS011;18708;53.124;23.190;2023-05-10T03:10:19;10.32;;;5.50;;
32214;SDS011;18708;53.124;23.190;2023-05-10T03:16:10;10.05;;;4.82;;
32214;SDS011;18708;53.124;23.190;2023-05-10T03:21:09;8.40;;;4.75;;
32214;SDS011;18708;53.124;23.190;2023-05-10T03:26:08;12.32;;;5.72;;
32214;SDS011;18708;53.124;23.190;2023-05-10T03:28:34;14.05;;;5.30;;
32214;SDS011;18708;53.124;23.190;2023-05-10T03:31:01;12.73;;;5.78;;
32214;SDS011;18708;53.124;23.190;2023-05-10T03:33:29;16.58;;;6.90;;
32214;SDS011;18708;53.124;23.190;2023-05-10T03:35:54;13.63;;;6.50;;
32214;SDS011;18708;53.124;23.190;2023-05-10T03:38:20;14.20;;;5.80;;
32214;SDS011;18708;53.124;23.190;2023-05-10T03:40:46;14.05;;;5.90;;
32214;SDS011;18708;53.124;23.190;2023-05-10T03:43:12;14.85;;;7.03;;
32214;SDS011;18708;53.124;23.190;2023-05-10T03:45:37;10.05;;;5.78;;
32214;SDS011;18708;53.124;23.190;2023-05-10T03:48:03;13.23;;;5.43;;
32214;SDS011;18708;53.124;23.190;2023-05-10T03:50:29;7.93;;;4.68;;
32214;SDS011;18708;53.124;23.190;2023-05-10T03:52:55;8.13;;;4.75;;
32214;SDS011;18708;53.124;23.190;2023-05-10T03:55:21;9.10;;;5.32;;
32214;SDS011;18708;53.124;23.190;2023-05-10T03:57:47;9.98;;;5.68;;
32214;SDS011;18708;53.124;23.190;2023-05-10T04:00:14;7.45;;;4.60;;
32214;SDS011;18708;53.124;23.190;2023-05-10T04:02:40;8.27;;;4.55;;
32214;SDS011;18708;53.124;23.190;2023-05-10T04:05:06;7.75;;;4.43;;
32214;SDS011;18708;53.124;23.190;2023-05-10T04:07:32;6.03;;;3.95;;
32214;SDS011;18708;53.124;23.190;2023-05-10T04:09:58;6.75;;;4.15;;
32214;SDS011;18708;53.124;23.190;2023-05-10T04:12:24;9.88;;;4.55;;
32214;SDS011;18708;53.124;23.190;2023-05-10T04:14:49;5.82;;;4.28;;
32214;SDS011;18708;53.124;23.190;2023-05-10T04:17:15;6.40;;;4.85;;
32214;SDS011;18708;53.124;23.190;2023-05-10T04:19:41;4.85;;;3.67;;
32214;SDS011;18708;53.124;23.190;2023-05-10T04:22:07;6.35;;;4.10;;
32214;SDS011;18708;53.124;23.190;2023-05-10T04:24:32;5.15;;;4.05;;
32214;SDS011;18708;53.124;23.190;2023-05-10T04:26:58;4.90;;;3.58;;
32214;SDS011;18708;53.124;23.190;2023-05-10T04:29:24;6.78;;;4.15;;
32214;SDS011;18708;53.124;23.190;2023-05-10T04:31:49;7.65;;;3.92;;
32214;SDS011;18708;53.124;23.190;2023-05-10T04:34:15;4.35;;;3.20;;
32214;SDS011;18708;53.124;23.190;2023-05-10T04:36:41;6.82;;;4.03;;
32214;SDS011;18708;53.124;23.190;2023-05-10T04:39:07;8.30;;;3.83;;
32214;SDS011;18708;53.124;23.190;2023-05-10T04:41:33;6.25;;;3.58;;
32214;SDS011;18708;53.124;23.190;2023-05-10T04:43:59;8.10;;;4.15;;
32214;SDS011;18708;53.124;23.190;2023-05-10T04:46:25;7.88;;;3.70;;
32214;SDS011;18708;53.124;23.190;2023-05-10T04:48:50;5.43;;;3.53;;
32214;SDS011;18708;53.124;23.190;2023-05-10T04:51:16;9.73;;;4.10;;
32214;SDS011;18708;53.124;23.190;2023-05-10T04:53:42;6.82;;;3.78;;
32214;SDS011;18708;53.124;23.190;2023-05-10T04:56:07;4.90;;;3.67;;
32214;SDS011;18708;53.124;23.190;2023-05-10T04:58:33;6.10;;;3.67;;
32214;SDS011;18708;53.124;23.190;2023-05-10T05:01:05;4.50;;;3.30;;
32214;SDS011;18708;53.124;23.190;2023-05-10T05:03:35;6.75;;;4.05;;
32214;SDS011;18708;53.124;23.190;2023-05-10T05:06:01;9.88;;;3.92;;
32214;SDS011;18708;53.124;23.190;2023-05-10T05:08:27;4.97;;;3.72;;
32214;SDS011;18708;53.124;23.190;2023-05-10T05:10:53;7.13;;;3.42;;
32214;SDS011;18708;53.124;23.190;2023-05-10T05:13:19;6.22;;;3.45;;
32214;SDS011;18708;53.124;23.190;2023-05-10T05:15:45;8.60;;;3.80;;
32214;SDS011;18708;53.124;23.190;2023-05-10T05:18:10;7.10;;;3.22;;
32214;SDS011;18708;53.124;23.190;2023-05-10T05:20:36;8.35;;;4.18;;
32214;SDS011;18708;53.124;23.190;2023-05-10T05:23:01;8.45;;;3.45;;
32214;SDS011;18708;53.124;23.190;2023-05-10T05:25:27;3.50;;;3.15;;
32214;SDS011;18708;53.124;23.190;2023-05-10T05:27:53;8.68;;;3.92;;
32214;SDS011;18708;53.124;23.190;2023-05-10T05:30:19;5.93;;;3.55;;
32214;SDS011;18708;53.124;23.190;2023-05-10T05:32:44;8.95;;;4.88;;
32214;SDS011;18708;53.124;23.190;2023-05-10T05:35:12;10.73;;;6.13;;
32214;SDS011;18708;53.124;23.190;2023-05-10T05:37:37;13.07;;;4.97;;
32214;SDS011;18708;53.124;23.190;2023-05-10T05:40:06;18.80;;;5.38;;
32214;SDS011;18708;53.124;23.190;2023-05-10T05:42:32;8.27;;;3.78;;
32214;SDS011;18708;53.124;23.190;2023-05-10T05:44:58;11.23;;;3.47;;
32214;SDS011;18708;53.124;23.190;2023-05-10T05:47:24;6.43;;;3.33;;
32214;SDS011;18708;53.124;23.190;2023-05-10T05:49:49;8.20;;;3.35;;
32214;SDS011;18708;53.124;23.190;2023-05-10T05:52:17;5.40;;;3.22;;
32214;SDS011;18708;53.124;23.190;2023-05-10T05:54:42;6.22;;;2.75;;
32214;SDS011;18708;53.124;23.190;2023-05-10T05:57:08;5.63;;;3.35;;
32214;SDS011;18708;53.124;23.190;2023-05-10T05:59:36;5.57;;;2.85;;
32214;SDS011;18708;53.124;23.190;2023-05-10T06:02:07;5.63;;;2.97;;
32214;SDS011;18708;53.124;23.190;2023-05-10T06:04:34;8.52;;;3.03;;
32214;SDS011;18708;53.124;23.190;2023-05-10T06:07:00;6.03;;;3.10;;
32214;SDS011;18708;53.124;23.190;2023-05-10T06:09:25;8.90;;;3.42;;
32214;SDS011;18708;53.124;23.190;2023-05-10T06:11:51;6.32;;;3.22;;
32214;SDS011;18708;53.124;23.190;2023-05-10T06:14:17;6.95;;;2.72;;
32214;SDS011;18708;53.124;23.190;2023-05-10T06:16:44;5.78;;;2.67;;
32214;SDS011;18708;53.124;23.190;2023-05-10T06:19:10;4.47;;;3.28;;
32214;SDS011;18708;53.124;23.190;2023-05-10T06:21:36;12.30;;;5.97;;
32214;SDS011;18708;53.124;23.190;2023-05-10T06:24:01;3.70;;;2.30;;
32214;SDS011;18708;53.124;23.190;2023-05-10T06:26:27;4.32;;;2.40;;
32214;SDS011;18708;53.124;23.190;2023-05-10T06:28:53;9.27;;;4.35;;
32214;SDS011;18708;53.124;23.190;2023-05-10T06:31:19;4.85;;;3.88;;
32214;SDS011;18708;53.124;23.190;2023-05-10T06:33:45;8.60;;;6.97;;
32214;SDS011;18708;53.124;23.190;2023-05-10T06:36:10;4.50;;;4.10;;
32214;SDS011;18708;53.124;23.190;2023-05-10T06:38:36;7.60;;;3.28;;
32214;SDS011;18708;53.124;23.190;2023-05-10T06:41:02;4.65;;;2.30;;
32214;SDS011;18708;53.124;23.190;2023-05-10T06:43:28;4.97;;;2.35;;
32214;SDS011;18708;53.124;23.190;2023-05-10T06:45:53;6.93;;;3.47;;
32214;SDS011;18708;53.124;23.190;2023-05-10T06:48:19;5.10;;;2.00;;
32214;SDS011;18708;53.124;23.190;2023-05-10T06:50:45;3.83;;;2.42;;
32214;SDS011;18708;53.124;23.190;2023-05-10T06:53:10;4.38;;;2.20;;
32214;SDS011;18708;53.124;23.190;2023-05-10T06:55:37;4.45;;;2.60;;
32214;SDS011;18708;53.124;23.190;2023-05-10T06:58:02;2.60;;;1.58;;
32214;SDS011;18708;53.124;23.190;2023-05-10T07:00:28;1.80;;;1.70;;
32214;SDS011;18708;53.124;23.190;2023-05-10T07:02:54;6.50;;;2.20;;
32214;SDS011;18708;53.124;23.190;2023-05-10T07:05:23;4.90;;;2.72;;
32214;SDS011;18708;53.124;23.190;2023-05-10T07:07:48;3.05;;;2.20;;
32214;SDS011;18708;53.124;23.190;2023-05-10T07:10:14;6.28;;;1.92;;
32214;SDS011;18708;53.124;23.190;2023-05-10T07:12:40;3.47;;;2.40;;
32214;SDS011;18708;53.124;23.190;2023-05-10T07:15:08;2.40;;;2.00;;
32214;SDS011;18708;53.124;23.190;2023-05-10T07:17:34;2.67;;;2.00;;
32214;SDS011;18708;53.124;23.190;2023-05-10T07:20:00;3.78;;;1.90;;
32214;SDS011;18708;53.124;23.190;2023-05-10T07:22:26;5.97;;;1.90;;
32214;SDS011;18708;53.124;23.190;2023-05-10T07:24:52;2.45;;;1.80;;
32214;SDS011;18708;53.124;23.190;2023-05-10T07:27:17;4.05;;;1.80;;
32214;SDS011;18708;53.124;23.190;2023-05-10T07:29:43;2.00;;;1.80;;
32214;SDS011;18708;53.124;23.190;2023-05-10T07:32:09;3.50;;;2.03;;
32214;SDS011;18708;53.124;23.190;2023-05-10T07:34:34;2.10;;;1.85;;
32214;SDS011;18708;53.124;23.190;2023-05-10T07:37:00;3.75;;;2.03;;
32214;SDS011;18708;53.124;23.190;2023-05-10T07:39:26;2.17;;;1.60;;
32214;SDS011;18708;53.124;23.190;2023-05-10T07:41:52;2.08;;;1.65;;
32214;SDS011;18708;53.124;23.190;2023-05-10T07:44:18;1.65;;;1.50;;
32214;SDS011;18708;53.124;23.190;2023-05-10T07:46:45;2.58;;;1.48;;
32214;SDS011;18708;53.124;23.190;2023-05-10T07:49:13;1.73;;;1.50;;
32214;SDS011;18708;53.124;23.190;2023-05-10T07:51:39;2.25;;;1.70;;
32214;SDS011;18708;53.124;23.190;2023-05-10T07:54:05;1.75;;;1.48;;
32214;SDS011;18708;53.124;23.190;2023-05-10T07:56:31;7.20;;;1.92;;
32214;SDS011;18708;53.124;23.190;2023-05-10T07:59:01;2.63;;;1.85;;
32214;SDS011;18708;53.124;23.190;2023-05-10T08:01:32;2.90;;;1.67;;
32214;SDS011;18708;53.124;23.190;2023-05-10T08:03:59;4.60;;;1.58;;
32214;SDS011;18708;53.124;23.190;2023-05-10T08:06:25;4.05;;;1.90;;
32214;SDS011;18708;53.124;23.190;2023-05-10T08:08:54;4.65;;;2.10;;
32214;SDS011;18708;53.124;23.190;2023-05-10T08:11:21;3.55;;;1.70;;
32214;SDS011;18708;53.124;23.190;2023-05-10T08:13:47;5.30;;;2.53;;
32214;SDS011;18708;53.124;23.190;2023-05-10T08:16:14;4.45;;;2.92;;
32214;SDS011;18708;53.124;23.190;2023-05-10T08:18:41;2.88;;;1.73;;
32214;SDS011;18708;53.124;23.190;2023-05-10T08:21:08;3.97;;;2.10;;
32214;SDS011;18708;53.124;23.190;2023-05-10T08:23:35;8.77;;;5.20;;
32214;SDS011;18708;53.124;23.190;2023-05-10T08:26:01;34.20;;;21.33;;
32214;SDS011;18708;53.124;23.190;2023-05-10T08:28:27;2.63;;;2.00;;
32214;SDS011;18708;53.124;23.190;2023-05-10T08:30:52;7.70;;;4.93;;
32214;SDS011;18708;53.124;23.190;2023-05-10T08:33:18;10.68;;;5.55;;
32214;SDS011;18708;53.124;23.190;2023-05-10T08:35:44;1.77;;;1.58;;
32214;SDS011;18708;53.124;23.190;2023-05-10T08:38:10;4.28;;;1.73;;
32214;SDS011;18708;53.124;23.190;2023-05-10T08:40:37;4.88;;;1.65;;
32214;SDS011;18708;53.124;23.190;2023-05-10T08:43:05;3.90;;;2.13;;
32214;SDS011;18708;53.124;23.190;2023-05-10T08:45:37;2.38;;;1.80;;
32214;SDS011;18708;53.124;23.190;2023-05-10T08:48:06;2.35;;;2.00;;
32214;SDS011;18708;53.124;23.190;2023-05-10T08:50:36;1.88;;;1.52;;
32214;SDS011;18708;53.124;23.190;2023-05-10T08:53:04;1.85;;;1.67;;
32214;SDS011;18708;53.124;23.190;2023-05-10T08:55:32;2.78;;;1.77;;
32214;SDS011;18708;53.124;23.190;2023-05-10T08:57:59;4.93;;;2.13;;
32214;SDS011;18708;53.124;23.190;2023-05-10T09:00:25;4.82;;;1.85;;
32214;SDS011;18708;53.124;23.190;2023-05-10T09:02:52;1.92;;;1.60;;
32214;SDS011;18708;53.124;23.190;2023-05-10T09:05:18;7.45;;;1.75;;
32214;SDS011;18708;53.124;23.190;2023-05-10T09:07:44;2.40;;;1.52;;
32214;SDS011;18708;53.124;23.190;2023-05-10T09:10:10;5.28;;;3.00;;
32214;SDS011;18708;53.124;23.190;2023-05-10T09:12:38;5.57;;;3.40;;
32214;SDS011;18708;53.124;23.190;2023-05-10T09:15:04;3.90;;;1.73;;
32214;SDS011;18708;53.124;23.190;2023-05-10T09:17:31;4.40;;;2.90;;
32214;SDS011;18708;53.124;23.190;2023-05-10T09:19:59;3.05;;;1.90;;
32214;SDS011;18708;53.124;23.190;2023-05-10T09:22:29;8.85;;;2.55;;
32214;SDS011;18708;53.124;23.190;2023-05-10T09:25:05;3.03;;;2.00;;
32214;SDS011;18708;53.124;23.190;2023-05-10T09:27:36;3.22;;;1.75;;
32214;SDS011;18708;53.124;23.190;2023-05-10T09:30:04;2.60;;;1.50;;
32214;SDS011;18708;53.124;23.190;2023-05-10T09:32:47;2.92;;;1.73;;
32214;SDS011;18708;53.124;23.190;2023-05-10T09:35:17;10.93;;;6.75;;
32214;SDS011;18708;53.124;23.190;2023-05-10T09:37:45;29.50;;;16.88;;
32214;SDS011;18708;53.124;23.190;2023-05-10T09:40:14;9.13;;;5.35;;
32214;SDS011;18708;53.124;23.190;2023-05-10T09:42:42;2.55;;;1.90;;
32214;SDS011;18708;53.124;23.190;2023-05-10T09:45:15;4.20;;;1.95;;
32214;SDS011;18708;53.124;23.190;2023-05-10T09:47:41;2.33;;;1.60;;
32214;SDS011;18708;53.124;23.190;2023-05-10T09:50:07;2.72;;;1.70;;
32214;SDS011;18708;53.124;23.190;2023-05-10T09:55:39;1.73;;;1.42;;
32214;SDS011;18708;53.124;23.190;2023-05-10T09:58:06;3.83;;;1.88;;
32214;SDS011;18708;53.124;23.190;2023-05-10T10:00:41;3.60;;;1.92;;
32214;SDS011;18708;53.124;23.190;2023-05-10T10:03:12;2.85;;;1.98;;
32214;SDS011;18708;53.124;23.190;2023-05-10T10:05:40;1.95;;;1.35;;
32214;SDS011;18708;53.124;23.190;2023-05-10T10:08:10;3.03;;;1.95;;
32214;SDS011;18708;53.124;23.190;2023-05-10T10:10:36;3.05;;;1.70;;
32214;SDS011;18708;53.124;23.190;2023-05-10T10:13:05;1.73;;;1.60;;
32214;SDS011;18708;53.124;23.190;2023-05-10T10:15:32;3.53;;;2.00;;
32214;SDS011;18708;53.124;23.190;2023-05-10T10:17:59;1.42;;;1.30;;
32214;SDS011;18708;53.124;23.190;2023-05-10T10:20:28;3.63;;;1.90;;
32214;SDS011;18708;53.124;23.190;2023-05-10T10:22:54;1.80;;;1.70;;
32214;SDS011;18708;53.124;23.190;2023-05-10T10:25:20;4.25;;;2.33;;
32214;SDS011;18708;53.124;23.190;2023-05-10T10:30:31;2.05;;;1.48;;
32214;SDS011;18708;53.124;23.190;2023-05-10T10:35:33;2.40;;;1.40;;
32214;SDS011;18708;53.124;23.190;2023-05-10T10:38:01;2.00;;;1.67;;
32214;SDS011;18708;53.124;23.190;2023-05-10T10:40:28;2.15;;;1.67;;
32214;SDS011;18708;53.124;23.190;2023-05-10T10:42:58;2.15;;;1.65;;
32214;SDS011;18708;53.124;23.190;2023-05-10T10:46:13;1.80;;;1.65;;
32214;SDS011;18708;53.124;23.190;2023-05-10T10:48:49;4.07;;;1.95;;
32214;SDS011;18708;53.124;23.190;2023-05-10T10:51:36;1.90;;;1.33;;
32214;SDS011;18708;53.124;23.190;2023-05-10T10:54:12;1.97;;;1.70;;
32214;SDS011;18708;53.124;23.190;2023-05-10T10:56:37;9.80;;;3.40;;
32214;SDS011;18708;53.124;23.190;2023-05-10T10:59:03;6.32;;;2.63;;
32214;SDS011;18708;53.124;23.190;2023-05-10T11:01:33;4.07;;;1.88;;
32214;SDS011;18708;53.124;23.190;2023-05-10T11:06:29;2.45;;;1.50;;
32214;SDS011;18708;53.124;23.190;2023-05-10T11:08:59;2.05;;;1.60;;
32214;SDS011;18708;53.124;23.190;2023-05-10T11:11:30;4.00;;;1.65;;
32214;SDS011;18708;53.124;23.190;2023-05-10T11:13:56;2.90;;;1.63;;
32214;SDS011;18708;53.124;23.190;2023-05-10T11:16:29;2.35;;;1.50;;
32214;SDS011;18708;53.124;23.190;2023-05-10T11:19:10;2.05;;;1.70;;
32214;SDS011;18708;53.124;23.190;2023-05-10T11:21:46;5.05;;;2.03;;
32214;SDS011;18708;53.124;23.190;2023-05-10T11:24:17;3.53;;;1.73;;
32214;SDS011;18708;53.124;23.190;2023-05-10T11:26:43;3.90;;;1.70;;
32214;SDS011;18708;53.124;23.190;2023-05-10T11:29:09;2.55;;;1.50;;
32214;SDS011;18708;53.124;23.190;2023-05-10T11:31:41;2.17;;;1.70;;
32214;SDS011;18708;53.124;23.190;2023-05-10T11:34:08;2.45;;;1.67;;
32214;SDS011;18708;53.124;23.190;2023-05-10T11:36:35;4.15;;;2.20;;
32214;SDS011;18708;53.124;23.190;2023-05-10T11:39:01;3.45;;;1.58;;
32214;SDS011;18708;53.124;23.190;2023-05-10T11:41:28;2.72;;;1.77;;
32214;SDS011;18708;53.124;23.190;2023-05-10T11:43:55;4.95;;;2.03;;
32214;SDS011;18708;53.124;23.190;2023-05-10T11:46:22;3.63;;;2.25;;
32214;SDS011;18708;53.124;23.190;2023-05-10T11:48:52;1.98;;;1.63;;
32214;SDS011;18708;53.124;23.190;2023-05-10T11:51:20;3.08;;;1.70;;
32214;SDS011;18708;53.124;23.190;2023-05-10T11:53:50;2.40;;;1.77;;
32214;SDS011;18708;53.124;23.190;2023-05-10T11:56:18;2.67;;;1.80;;
32214;SDS011;18708;53.124;23.190;2023-05-10T11:58:44;4.70;;;1.88;;
32214;SDS011;18708;53.124;23.190;2023-05-10T12:01:10;2.30;;;1.60;;
32214;SDS011;18708;53.124;23.190;2023-05-10T12:03:36;3.35;;;1.40;;
32214;SDS011;18708;53.124;23.190;2023-05-10T12:06:02;2.03;;;1.83;;
32214;SDS011;18708;53.124;23.190;2023-05-10T12:08:29;2.72;;;2.05;;
32214;SDS011;18708;53.124;23.190;2023-05-10T12:11:17;3.13;;;1.80;;
32214;SDS011;18708;53.124;23.190;2023-05-10T12:13:42;5.03;;;2.20;;
32214;SDS011;18708;53.124;23.190;2023-05-10T12:16:13;3.90;;;1.67;;
32214;SDS011;18708;53.124;23.190;2023-05-10T12:18:40;2.53;;;1.60;;
32214;SDS011;18708;53.124;23.190;2023-05-10T12:21:07;2.60;;;1.40;;
32214;SDS011;18708;53.124;23.190;2023-05-10T12:23:35;1.70;;;1.60;;
32214;SDS011;18708;53.124;23.190;2023-05-10T12:26:02;2.95;;;1.48;;
32214;SDS011;18708;53.124;23.190;2023-05-10T12:28:31;3.08;;;1.33;;
32214;SDS011;18708;53.124;23.190;2023-05-10T12:30:59;3.20;;;1.80;;
32214;SDS011;18708;53.124;23.190;2023-05-10T12:33:25;2.95;;;1.65;;
32214;SDS011;18708;53.124;23.190;2023-05-10T12:35:51;2.58;;;1.33;;
32214;SDS011;18708;53.124;23.190;2023-05-10T12:41:00;2.60;;;1.80;;
32214;SDS011;18708;53.124;23.190;2023-05-10T12:43:28;2.10;;;1.75;;
32214;SDS011;18708;53.124;23.190;2023-05-10T12:45:54;1.48;;;1.38;;
32214;SDS011;18708;53.124;23.190;2023-05-10T12:48:20;2.08;;;1.45;;
32214;SDS011;18708;53.124;23.190;2023-05-10T12:50:46;2.10;;;1.40;;
32214;SDS011;18708;53.124;23.190;2023-05-10T12:53:15;4.22;;;1.60;;
32214;SDS011;18708;53.124;23.190;2023-05-10T12:55:42;2.38;;;1.50;;
32214;SDS011;18708;53.124;23.190;2023-05-10T12:58:08;4.03;;;1.77;;
32214;SDS011;18708;53.124;23.190;2023-05-10T13:00:34;2.67;;;1.40;;
32214;SDS011;18708;53.124;23.190;2023-05-10T13:02:59;3.55;;;1.80;;
32214;SDS011;18708;53.124;23.190;2023-05-10T13:05:25;2.45;;;1.65;;
32214;SDS011;18708;53.124;23.190;2023-05-10T13:07:51;2.00;;;1.40;;
32214;SDS011;18708;53.124;23.190;2023-05-10T13:10:16;1.90;;;1.50;;
32214;SDS011;18708;53.124;23.190;2023-05-10T13:12:45;3.42;;;1.80;;
32214;SDS011;18708;53.124;23.190;2023-05-10T13:15:10;2.85;;;2.30;;
32214;SDS011;18708;53.124;23.190;2023-05-10T13:17:36;4.28;;;2.03;;
32214;SDS011;18708;53.124;23.190;2023-05-10T13:20:04;3.08;;;1.95;;
32214;SDS011;18708;53.124;23.190;2023-05-10T13:22:30;4.07;;;1.98;;
32214;SDS011;18708;53.124;23.190;2023-05-10T13:24:56;2.78;;;1.80;;
32214;SDS011;18708;53.124;23.190;2023-05-10T13:27:21;1.95;;;1.60;;
32214;SDS011;18708;53.124;23.190;2023-05-10T13:29:47;4.93;;;1.67;;
32214;SDS011;18708;53.124;23.190;2023-05-10T13:32:13;6.70;;;2.42;;
32214;SDS011;18708;53.124;23.190;2023-05-10T13:34:38;4.93;;;1.90;;
32214;SDS011;18708;53.124;23.190;2023-05-10T13:37:04;3.22;;;1.83;;
32214;SDS011;18708;53.124;23.190;2023-05-10T13:39:30;2.42;;;1.60;;
32214;SDS011;18708;53.124;23.190;2023-05-10T13:41:58;2.22;;;2.00;;
32214;SDS011;18708;53.124;23.190;2023-05-10T13:44:24;4.78;;;2.35;;
32214;SDS011;18708;53.124;23.190;2023-05-10T13:46:49;3.33;;;1.70;;
32214;SDS011;18708;53.124;23.190;2023-05-10T13:49:15;8.70;;;2.47;;
32214;SDS011;18708;53.124;23.190;2023-05-10T13:51:43;2.53;;;1.63;;
32214;SDS011;18708;53.124;23.190;2023-05-10T13:54:08;2.50;;;1.85;;
32214;SDS011;18708;53.124;23.190;2023-05-10T13:56:34;2.72;;;1.88;;
32214;SDS011;18708;53.124;23.190;2023-05-10T13:59:00;3.17;;;1.90;;
32214;SDS011;18708;53.124;23.190;2023-05-10T14:01:26;2.30;;;1.80;;
32214;SDS011;18708;53.124;23.190;2023-05-10T14:03:51;3.90;;;1.98;;
32214;SDS011;18708;53.124;23.190;2023-05-10T14:06:17;3.38;;;1.70;;
32214;SDS011;18708;53.124;23.190;2023-05-10T14:08:43;3.72;;;2.17;;
32214;SDS011;18708;53.124;23.190;2023-05-10T14:11:08;1.90;;;1.52;;
32214;SDS011;18708;53.124;23.190;2023-05-10T14:13:34;7.35;;;1.90;;
32214;SDS011;18708;53.124;23.190;2023-05-10T14:16:00;2.80;;;1.65;;
32214;SDS011;18708;53.124;23.190;2023-05-10T14:18:26;5.22;;;1.75;;
32214;SDS011;18708;53.124;23.190;2023-05-10T14:20:52;3.30;;;1.90;;
32214;SDS011;18708;53.124;23.190;2023-05-10T14:23:18;2.83;;;1.55;;
32214;SDS011;18708;53.124;23.190;2023-05-10T14:25:49;3.53;;;2.00;;
32214;SDS011;18708;53.124;23.190;2023-05-10T14:28:18;2.72;;;1.70;;
32214;SDS011;18708;53.124;23.190;2023-05-10T14:30:45;3.20;;;1.67;;
32214;SDS011;18708;53.124;23.190;2023-05-10T14:33:11;3.53;;;2.05;;
32214;SDS011;18708;53.124;23.190;2023-05-10T14:35:37;2.80;;;1.85;;
32214;SDS011;18708;53.124;23.190;2023-05-10T14:38:03;2.90;;;2.05;;
32214;SDS011;18708;53.124;23.190;2023-05-10T14:40:29;3.08;;;1.80;;
32214;SDS011;18708;53.124;23.190;2023-05-10T14:42:55;3.42;;;2.15;;
32214;SDS011;18708;53.124;23.190;2023-05-10T14:45:21;2.17;;;1.60;;
32214;SDS011;18708;53.124;23.190;2023-05-10T14:47:48;1.90;;;1.70;;
32214;SDS011;18708;53.124;23.190;2023-05-10T14:50:14;8.02;;;6.10;;
32214;SDS011;18708;53.124;23.190;2023-05-10T14:52:40;2.58;;;1.90;;
32214;SDS011;18708;53.124;23.190;2023-05-10T14:55:06;2.85;;;2.28;;
32214;SDS011;18708;53.124;23.190;2023-05-10T14:57:32;2.15;;;1.92;;
32214;SDS011;18708;53.124;23.190;2023-05-10T14:59:58;3.08;;;1.83;;
32214;SDS011;18708;53.124;23.190;2023-05-10T15:02:23;4.28;;;2.00;;
32214;SDS011;18708;53.124;23.190;2023-05-10T15:04:49;3.28;;;1.95;;
32214;SDS011;18708;53.124;23.190;2023-05-10T15:07:17;5.20;;;2.10;;
32214;SDS011;18708;53.124;23.190;2023-05-10T15:09:46;3.92;;;2.00;;